createdAt,value
2022-07-27T00:02:32.025Z,8.07
2022-07-27T00:05:33.642Z,12.43
2022-07-27T00:08:35.457Z,7.35
2022-07-27T00:11:37.176Z,8.60
2022-07-27T00:14:39.053Z,10.05
2022-07-27T00:17:40.638Z,11.68
2022-07-27T00:20:42.389Z,9.63
2022-07-27T00:23:44.003Z,10.00
2022-07-27T00:26:45.615Z,9.27
2022-07-27T00:29:47.253Z,10.65
2022-07-27T00:32:48.968Z,10.55
2022-07-27T00:35:50.567Z,10.55
2022-07-27T00:38:52.531Z,7.90
2022-07-27T00:41:54.137Z,8.70
2022-07-27T00:44:56.014Z,8.20
2022-07-27T00:47:57.657Z,5.93
2022-07-27T00:50:59.463Z,6.40
2022-07-27T00:54:01.116Z,8.98
2022-07-27T00:57:03.932Z,6.15
2022-07-27T01:00:06.214Z,5.97
2022-07-27T01:03:08.939Z,5.07
2022-07-27T01:06:11.738Z,6.72
2022-07-27T01:09:32.508Z,11.10
2022-07-27T01:12:34.926Z,8.75
2022-07-27T01:15:38.127Z,9.80
2022-07-27T01:18:40.038Z,7.32
2022-07-27T01:21:41.675Z,9.27
2022-07-27T01:24:43.353Z,5.93
2022-07-27T01:27:45.052Z,9.98
2022-07-27T01:30:47.406Z,4.47
2022-07-27T01:33:49.437Z,10.77
2022-07-27T01:36:51.045Z,10.93
2022-07-27T01:39:52.650Z,11.13
2022-07-27T01:42:54.577Z,13.57
2022-07-27T01:45:56.348Z,7.97
2022-07-27T01:48:58.034Z,8.05
2022-07-27T01:51:59.711Z,11.50
2022-07-27T01:55:01.381Z,6.70
2022-07-27T01:58:06.019Z,7.28
2022-07-27T02:01:08.270Z,5.10
2022-07-27T02:04:09.873Z,9.18
2022-07-27T02:07:11.626Z,5.18
2022-07-27T02:10:13.556Z,8.10
2022-07-27T02:13:22.589Z,7.30
2022-07-27T02:16:24.847Z,6.75
2022-07-27T02:19:26.443Z,5.85
2022-07-27T02:22:28.148Z,7.18
2022-07-27T02:25:29.821Z,9.82
2022-07-27T02:28:31.732Z,5.70
2022-07-27T02:31:33.312Z,5.55
2022-07-27T02:34:34.868Z,7.93
2022-07-27T02:37:36.817Z,11.35
2022-07-27T02:40:38.669Z,7.85
2022-07-27T02:43:40.271Z,10.63
2022-07-27T02:46:41.891Z,11.38
2022-07-27T02:49:43.563Z,10.10
2022-07-27T02:52:45.192Z,11.63
2022-07-27T02:55:46.824Z,6.43
2022-07-27T02:58:48.424Z,7.85
2022-07-27T03:01:50.482Z,7.13
2022-07-27T03:04:52.235Z,8.10
2022-07-27T03:07:53.831Z,8.82
2022-07-27T03:10:55.424Z,8.20
2022-07-27T03:13:57.450Z,9.02
2022-07-27T03:16:59.104Z,8.73
2022-07-27T03:20:00.718Z,8.55
2022-07-27T03:23:02.320Z,7.53
2022-07-27T03:26:04.004Z,8.05
2022-07-27T03:29:05.619Z,9.02
2022-07-27T03:32:07.293Z,7.78
2022-07-27T03:35:09.456Z,7.28
2022-07-27T03:38:11.482Z,7.40
2022-07-27T03:41:13.325Z,8.20
2022-07-27T03:44:15.022Z,6.07
2022-07-27T03:47:16.593Z,6.80
2022-07-27T03:50:18.691Z,5.57
2022-07-27T03:53:21.459Z,10.52
2022-07-27T03:56:23.037Z,7.68
2022-07-27T03:59:24.698Z,7.03
2022-07-27T04:02:26.450Z,5.35
2022-07-27T04:05:29.432Z,7.70
2022-07-27T04:08:31.553Z,5.57
2022-07-27T04:11:33.387Z,10.48
2022-07-27T04:14:35.218Z,6.70
2022-07-27T04:17:56.221Z,13.65
2022-07-27T04:20:59.330Z,14.07
2022-07-27T04:24:01.989Z,11.85
2022-07-27T04:27:03.760Z,10.75
2022-07-27T04:30:09.541Z,13.20
2022-07-27T04:33:11.509Z,7.45
2022-07-27T04:36:13.787Z,10.27
2022-07-27T04:39:16.304Z,8.02
2022-07-27T04:42:18.258Z,13.43
2022-07-27T04:45:19.951Z,10.48
2022-07-27T04:48:21.526Z,10.18
2022-07-27T04:51:23.483Z,8.50
2022-07-27T04:54:25.087Z,7.82
2022-07-27T04:57:26.753Z,9.00
2022-07-27T05:00:33.342Z,7.82
2022-07-27T05:03:34.963Z,9.15
2022-07-27T05:06:36.518Z,11.93
2022-07-27T05:09:38.168Z,13.57
2022-07-27T05:12:39.824Z,11.52
2022-07-27T05:15:55.404Z,11.63
2022-07-27T05:18:57.759Z,12.55
2022-07-27T05:22:00.298Z,12.30
2022-07-27T05:25:02.013Z,12.38
2022-07-27T05:28:03.666Z,11.77
2022-07-27T05:31:05.290Z,12.77
2022-07-27T05:34:07.104Z,12.52
2022-07-27T05:37:09.122Z,14.60
2022-07-27T05:40:12.207Z,12.40
2022-07-27T05:43:14.112Z,13.75
2022-07-27T05:46:15.806Z,16.88
2022-07-27T05:49:17.727Z,8.43
2022-07-27T05:52:20.481Z,12.20
2022-07-27T05:55:22.136Z,13.65
2022-07-27T05:58:24.291Z,9.52
2022-07-27T06:01:26.665Z,14.40
2022-07-27T06:04:28.347Z,14.80
2022-07-27T06:07:49.804Z,10.32
2022-07-27T06:10:51.699Z,11.32
2022-07-27T06:13:53.352Z,9.85
2022-07-27T06:16:54.994Z,8.98
2022-07-27T06:19:56.631Z,14.27
2022-07-27T06:23:00.243Z,8.77
2022-07-27T06:26:02.076Z,13.57
2022-07-27T06:29:03.822Z,11.63
2022-07-27T06:32:12.357Z,17.75
2022-07-27T06:35:15.673Z,10.35
2022-07-27T06:38:20.036Z,9.90
2022-07-27T06:41:21.689Z,12.40
2022-07-27T06:44:23.301Z,11.38
2022-07-27T06:47:28.647Z,8.20
2022-07-27T06:50:30.497Z,11.63
2022-07-27T06:53:36.198Z,13.35
2022-07-27T06:56:38.566Z,11.95
2022-07-27T06:59:42.909Z,10.75
2022-07-27T07:02:59.543Z,15.07
2022-07-27T07:06:01.222Z,12.43
2022-07-27T07:09:03.515Z,11.40
2022-07-27T07:12:05.566Z,10.68
2022-07-27T07:15:07.984Z,7.68
2022-07-27T07:18:10.600Z,16.70
2022-07-27T07:21:12.569Z,11.45
2022-07-27T07:24:14.479Z,10.55
2022-07-27T07:27:16.079Z,11.90
2022-07-27T07:30:17.934Z,8.48
2022-07-27T07:33:19.592Z,10.32
2022-07-27T07:36:21.333Z,10.93
2022-07-27T07:39:26.656Z,12.35
2022-07-27T07:42:32.491Z,10.48
2022-07-27T07:45:37.900Z,6.97
2022-07-27T07:48:39.713Z,10.95
2022-07-27T07:51:41.533Z,16.38
2022-07-27T07:54:43.245Z,6.32
2022-07-27T07:57:44.842Z,8.35
2022-07-27T08:00:46.507Z,7.45
2022-07-27T08:03:51.071Z,6.70
2022-07-27T08:06:53.006Z,6.45
2022-07-27T08:09:54.720Z,4.65
2022-07-27T08:12:57.175Z,7.63
2022-07-27T08:15:58.849Z,6.15
2022-07-27T08:19:00.566Z,3.53
2022-07-27T08:22:02.294Z,10.52
2022-07-27T08:25:05.110Z,14.52
2022-07-27T08:28:07.476Z,8.93
2022-07-27T08:31:15.229Z,4.82
2022-07-27T08:34:20.644Z,6.85
2022-07-27T08:37:26.569Z,6.18
2022-07-27T08:40:40.204Z,4.80
2022-07-27T08:43:55.999Z,5.22
2022-07-27T08:47:00.793Z,3.75
2022-07-27T08:50:03.432Z,4.57
2022-07-27T08:53:08.442Z,4.07
2022-07-27T08:56:10.032Z,2.55
2022-07-27T08:59:11.992Z,5.15
2022-07-27T09:02:14.896Z,6.68
2022-07-27T09:05:16.581Z,5.07
2022-07-27T09:08:22.681Z,5.32
2022-07-27T09:11:24.339Z,8.98
2022-07-27T09:14:31.566Z,2.13
2022-07-27T09:17:49.975Z,3.63
2022-07-27T09:21:13.334Z,7.30
2022-07-27T09:24:45.708Z,3.85
2022-07-27T09:27:38.376Z,4.07
2022-07-27T09:30:42.951Z,5.18
2022-07-27T09:33:55.424Z,4.90
2022-07-27T09:36:58.562Z,5.00
2022-07-27T09:40:15.145Z,4.88
2022-07-27T09:44:28.645Z,7.53
2022-07-27T09:46:41.372Z,9.55
2022-07-27T09:49:43.053Z,7.53
2022-07-27T09:52:45.920Z,4.10
2022-07-27T09:55:59.200Z,3.88
2022-07-27T09:59:02.650Z,4.40
2022-07-27T10:02:05.385Z,2.67
2022-07-27T10:05:07.603Z,11.43
2022-07-27T10:08:09.285Z,3.58
2022-07-27T10:11:12.891Z,7.70
2022-07-27T10:14:15.504Z,6.18
2022-07-27T10:17:17.469Z,5.55
2022-07-27T10:20:19.452Z,4.28
2022-07-27T10:23:32.393Z,4.40
2022-07-27T10:26:42.274Z,5.45
2022-07-27T10:29:43.869Z,3.88
2022-07-27T10:37:34.197Z,4.03
2022-07-27T10:40:36.316Z,6.30
2022-07-27T10:43:37.954Z,3.97
2022-07-27T10:46:44.185Z,4.35
2022-07-27T10:49:45.861Z,2.30
2022-07-27T10:52:55.336Z,4.80
2022-07-27T10:55:57.050Z,5.43
2022-07-27T10:58:58.664Z,4.82
2022-07-27T11:02:00.381Z,3.42
2022-07-27T11:05:04.594Z,5.35
2022-07-27T11:08:35.371Z,4.60
2022-07-27T11:11:28.656Z,5.35
2022-07-27T11:14:31.640Z,7.70
2022-07-27T11:17:59.308Z,4.75
2022-07-27T11:21:19.073Z,2.67
2022-07-27T11:24:23.638Z,5.20
2022-07-27T11:27:26.350Z,6.38
2022-07-27T11:30:29.068Z,2.40
2022-07-27T11:33:30.898Z,5.38
2022-07-27T11:36:43.381Z,3.55
2022-07-27T11:40:04.159Z,3.17
2022-07-27T11:43:07.782Z,3.42
2022-07-27T11:46:23.258Z,2.13
2022-07-27T11:49:29.664Z,2.63
2022-07-27T11:52:31.773Z,6.65
2022-07-27T11:55:33.580Z,4.88
2022-07-27T11:59:01.600Z,2.35
2022-07-27T12:02:04.671Z,3.65
2022-07-27T12:05:10.423Z,4.50
2022-07-27T12:08:12.848Z,4.93
2022-07-27T12:11:16.421Z,8.10
2022-07-27T12:14:18.681Z,3.58
2022-07-27T12:17:30.837Z,5.60
2022-07-27T12:20:34.155Z,3.72
2022-07-27T12:23:35.815Z,8.63
2022-07-27T12:26:37.442Z,6.72
2022-07-27T12:30:04.037Z,8.05
2022-07-27T12:33:08.547Z,5.07
2022-07-27T12:36:10.416Z,5.20
2022-07-27T12:39:29.227Z,5.30
2022-07-27T12:42:35.580Z,5.90
2022-07-27T12:45:38.798Z,4.15
2022-07-27T12:48:42.104Z,2.80
2022-07-27T12:51:43.889Z,5.05
2022-07-27T12:54:45.453Z,3.58
2022-07-27T12:57:56.737Z,2.40
2022-07-27T13:00:58.947Z,4.18
2022-07-27T13:04:00.947Z,3.40
2022-07-27T13:07:02.592Z,4.38
2022-07-27T13:10:08.280Z,4.43
2022-07-27T13:13:10.870Z,7.03
2022-07-27T13:16:12.491Z,4.88
2022-07-27T13:19:15.394Z,5.57
2022-07-27T13:22:17.547Z,5.00
2022-07-27T13:25:19.881Z,5.78
2022-07-27T13:28:21.599Z,5.43
2022-07-27T13:31:23.186Z,9.30
2022-07-27T13:34:24.950Z,4.40
2022-07-27T13:37:26.509Z,7.05
2022-07-27T13:40:28.147Z,6.85
2022-07-27T13:43:29.808Z,3.95
2022-07-27T13:46:31.434Z,7.05
2022-07-27T13:49:33.344Z,3.70
2022-07-27T13:52:35.266Z,4.50
2022-07-27T13:55:36.867Z,5.78
2022-07-27T13:58:40.910Z,2.92
2022-07-27T14:01:42.639Z,6.78
2022-07-27T14:04:44.564Z,4.68
2022-07-27T14:07:46.533Z,6.60
2022-07-27T14:10:48.281Z,5.88
2022-07-27T14:13:51.112Z,4.80
2022-07-27T14:16:52.777Z,4.95
2022-07-27T14:19:54.409Z,2.92
2022-07-27T14:22:56.116Z,4.25
2022-07-27T14:25:59.046Z,6.10
2022-07-27T14:29:00.812Z,3.53
2022-07-27T14:32:02.461Z,3.70
2022-07-27T14:35:05.972Z,3.20
2022-07-27T14:38:08.554Z,7.18
2022-07-27T14:41:10.231Z,2.97
2022-07-27T14:44:11.852Z,6.32
2022-07-27T14:47:13.620Z,6.40
2022-07-27T14:50:15.425Z,6.82
2022-07-27T14:53:17.166Z,6.82
2022-07-27T14:56:18.788Z,3.28
2022-07-27T14:59:20.426Z,7.20
2022-07-27T15:02:22.746Z,7.55
2022-07-27T15:05:24.355Z,3.60
2022-07-27T15:08:26.032Z,2.38
2022-07-27T15:11:27.617Z,5.20
2022-07-27T15:14:29.467Z,4.10
2022-07-27T15:17:31.257Z,6.40
2022-07-27T15:20:32.974Z,4.70
2022-07-27T15:23:34.583Z,6.43
2022-07-27T15:26:36.218Z,4.82
2022-07-27T15:29:38.043Z,6.78
2022-07-27T15:32:39.694Z,7.47
2022-07-27T15:35:41.481Z,2.80
2022-07-27T15:38:43.188Z,4.88
2022-07-27T15:41:44.798Z,6.53
2022-07-27T15:44:46.507Z,4.00
2022-07-27T15:47:52.542Z,5.20
2022-07-27T15:50:54.651Z,4.43
2022-07-27T15:53:57.042Z,6.60
2022-07-27T15:56:58.721Z,4.53
2022-07-27T16:00:00.338Z,4.57
2022-07-27T16:03:02.283Z,3.67
2022-07-27T16:06:04.175Z,3.83
2022-07-27T16:09:06.709Z,4.13
2022-07-27T16:12:08.459Z,4.13
2022-07-27T16:15:10.639Z,3.78
2022-07-27T16:18:12.271Z,3.65
2022-07-27T16:21:14.139Z,4.82
2022-07-27T16:24:15.774Z,4.97
2022-07-27T16:27:17.424Z,5.88
2022-07-27T16:30:20.518Z,7.65
2022-07-27T16:33:23.268Z,6.22
2022-07-27T16:36:25.057Z,2.85
2022-07-27T16:39:27.574Z,3.83
2022-07-27T16:42:29.202Z,6.57
2022-07-27T16:45:31.318Z,4.93
2022-07-27T16:48:38.626Z,4.30
2022-07-27T16:51:43.831Z,3.38
2022-07-27T16:54:45.473Z,7.70
2022-07-27T16:57:47.065Z,4.07
2022-07-27T17:00:48.671Z,5.63
2022-07-27T17:03:51.259Z,4.55
2022-07-27T17:06:52.833Z,4.10
2022-07-27T17:09:54.423Z,4.13
2022-07-27T17:12:57.994Z,6.00
2022-07-27T17:16:00.769Z,6.07
2022-07-27T17:19:02.637Z,3.83
2022-07-27T17:22:04.260Z,5.78
2022-07-27T17:25:07.132Z,8.55
2022-07-27T17:28:08.823Z,5.75
2022-07-27T17:31:12.563Z,4.93
2022-07-27T17:34:14.306Z,5.93
2022-07-27T17:37:16.432Z,3.90
2022-07-27T17:40:18.136Z,5.43
2022-07-27T17:43:20.031Z,4.82
2022-07-27T17:46:24.307Z,5.32
2022-07-27T17:49:26.089Z,5.70
2022-07-27T17:52:27.912Z,5.03
2022-07-27T17:55:29.563Z,5.05
2022-07-27T17:58:31.316Z,3.83
2022-07-27T18:01:47.172Z,2.85
2022-07-27T18:04:50.423Z,1.85
2022-07-27T18:07:53.503Z,4.13
2022-07-27T18:10:55.471Z,7.03
2022-07-27T18:14:00.051Z,4.18
2022-07-27T18:17:01.870Z,3.63
2022-07-27T18:20:03.901Z,3.00
2022-07-27T18:23:06.222Z,5.05
2022-07-27T18:26:09.931Z,3.80
2022-07-27T18:29:11.789Z,4.45
2022-07-27T18:32:13.634Z,3.78
2022-07-27T18:35:15.397Z,4.80
2022-07-27T18:38:17.291Z,3.70
2022-07-27T18:41:19.154Z,3.70
2022-07-27T18:44:20.854Z,4.95
2022-07-27T18:47:22.859Z,2.92
2022-07-27T18:50:26.587Z,4.28
2022-07-27T18:53:28.223Z,6.85
2022-07-27T18:56:30.102Z,4.50
2022-07-27T18:59:31.921Z,2.83
2022-07-27T19:02:39.204Z,6.40
2022-07-27T19:05:42.641Z,3.22
2022-07-27T19:08:44.508Z,8.23
2022-07-27T19:11:46.178Z,2.60
2022-07-27T19:14:50.089Z,4.55
2022-07-27T19:17:52.799Z,7.75
2022-07-27T19:20:55.474Z,2.67
2022-07-27T19:23:57.107Z,2.72
2022-07-27T19:26:58.792Z,5.60
2022-07-27T19:30:00.392Z,8.60
2022-07-27T19:33:02.510Z,7.25
2022-07-27T19:36:04.431Z,5.82
2022-07-27T19:39:08.183Z,4.93
2022-07-27T19:42:10.473Z,4.25
2022-07-27T19:45:12.396Z,5.35
2022-07-27T19:48:14.653Z,4.35
2022-07-27T19:51:16.449Z,6.85
2022-07-27T19:54:19.132Z,4.68
2022-07-27T19:57:21.377Z,4.85
2022-07-27T20:00:23.278Z,6.90
2022-07-27T20:03:25.135Z,4.03
2022-07-27T20:06:26.819Z,6.10
2022-07-27T20:09:29.070Z,5.32
2022-07-27T20:12:30.760Z,4.82
2022-07-27T20:15:32.561Z,7.03
2022-07-27T20:18:35.533Z,5.50
2022-07-27T20:21:39.158Z,10.13
2022-07-27T20:24:40.815Z,5.50
2022-07-27T20:27:42.623Z,6.80
2022-07-27T20:30:44.317Z,5.75
2022-07-27T20:33:46.205Z,4.13
2022-07-27T20:36:48.615Z,10.48
2022-07-27T20:40:11.540Z,12.13
2022-07-27T20:43:14.252Z,5.95
2022-07-27T20:46:38.619Z,7.43
2022-07-27T20:49:55.024Z,8.05
2022-07-27T20:53:07.462Z,10.73
2022-07-27T20:56:14.985Z,6.80
2022-07-27T20:59:38.761Z,7.68
2022-07-27T21:03:05.646Z,6.75
2022-07-27T21:06:08.960Z,6.95
2022-07-27T21:09:13.648Z,5.22
2022-07-27T21:12:25.979Z,8.25
2022-07-27T21:15:45.532Z,9.18
2022-07-27T21:19:32.903Z,8.40
2022-07-27T21:22:36.047Z,9.73
2022-07-27T21:26:02.087Z,8.10
2022-07-27T21:29:14.538Z,5.07
2022-07-27T21:39:22.203Z,7.78
2022-07-27T21:47:38.196Z,6.38
2022-07-27T21:51:28.887Z,6.22
2022-07-27T21:55:00.544Z,10.43
2022-07-27T21:58:09.772Z,8.75
2022-07-27T22:01:16.360Z,5.88
2022-07-27T22:04:24.291Z,10.57
2022-07-27T22:07:32.678Z,9.57
2022-07-27T22:10:34.856Z,7.68
2022-07-27T22:13:36.711Z,10.77
2022-07-27T22:16:40.255Z,7.20
2022-07-27T22:19:44.757Z,6.78
2022-07-27T22:22:47.690Z,8.05
2022-07-27T22:25:49.703Z,6.78
2022-07-27T22:28:52.480Z,8.52
2022-07-27T22:31:57.862Z,6.00
2022-07-27T22:34:59.701Z,5.15
2022-07-27T22:38:02.995Z,6.00
2022-07-27T22:41:09.629Z,5.85
2022-07-27T22:44:12.572Z,9.60
2022-07-27T22:47:16.630Z,3.22
2022-07-27T22:50:21.216Z,8.80
2022-07-27T22:53:36.137Z,8.50
2022-07-27T22:56:40.762Z,9.23
2022-07-27T22:59:54.506Z,8.57
2022-07-27T23:02:56.989Z,14.50
2022-07-27T23:05:59.361Z,7.53
2022-07-27T23:09:01.088Z,7.40
2022-07-27T23:12:03.429Z,6.45
2022-07-27T23:15:05.600Z,8.68
2022-07-27T23:18:08.193Z,8.43
2022-07-27T23:21:09.868Z,5.57
2022-07-27T23:24:14.240Z,6.68
2022-07-27T23:27:16.351Z,6.65
2022-07-27T23:30:18.299Z,7.72
2022-07-27T23:33:19.963Z,3.75
2022-07-27T23:36:21.586Z,4.50
2022-07-27T23:39:23.232Z,5.32
2022-07-27T23:42:25.636Z,8.05
2022-07-27T23:45:28.976Z,6.88
2022-07-27T23:48:30.588Z,12.18
2022-07-27T23:51:32.194Z,5.93
2022-07-27T23:54:33.857Z,10.57
2022-07-27T23:57:35.527Z,5.32
